Time;durP1;ratioP1;P1;durP2;ratioP2;P2;SDS_P1;SDS_P2;PMS_P1;PMS_P2;Temp;Humidity;BMP_temperature;BMP_pressure;BME280_temperature;BME280_humidity;BME280_pressure;Samples;Min_cycle;Max_cycle;Signal;HPM_P1;HPM_P2
2024/02/26 00:00:50;;;;;;;6.97;2.35;;;;;;;1.38;100.00;99772.59;5069288;28;20431;-80
2024/02/26 00:03:23;;;;;;;4.55;2.13;;;;;;;1.34;100.00;99775.78;5049689;28;20784;-80
2024/02/26 00:05:56;;;;;;;4.10;2.20;;;;;;;1.27;100.00;99775.13;5070503;28;20426;-81
2024/02/26 00:08:24;;;;;;;5.63;2.38;;;;;;;1.25;100.00;99773.72;5071751;28;20426;-80
2024/02/26 00:10:58;;;;;;;4.43;2.10;;;;;;;1.21;100.00;99776.06;5070681;28;20797;-80
2024/02/26 00:13:31;;;;;;;4.20;2.22;;;;;;;1.16;100.00;99771.44;5072623;28;20429;-80
2024/02/26 00:16:01;;;;;;;5.63;2.47;;;;;;;1.14;100.00;99778.06;5059080;28;20919;-81
2024/02/26 00:18:34;;;;;;;4.88;2.50;;;;;;;1.07;100.00;99786.25;5071730;28;20462;-80
2024/02/26 00:21:08;;;;;;;5.00;2.43;;;;;;;1.08;100.00;99782.53;5075126;28;20421;-80
2024/02/26 00:23:36;;;;;;;4.53;2.53;;;;;;;1.06;100.00;99776.56;5063795;28;20424;-80
2024/02/26 00:26:10;;;;;;;4.25;2.30;;;;;;;1.04;100.00;99777.88;5052552;28;20447;-80
2024/02/26 00:28:44;;;;;;;7.90;2.67;;;;;;;1.06;100.00;99773.91;5070595;28;22457;-80
2024/02/26 00:31:13;;;;;;;5.57;3.00;;;;;;;1.02;100.00;99778.94;5062485;28;20412;-81
2024/02/26 00:33:46;;;;;;;6.40;3.15;;;;;;;1.01;100.00;99782.66;5070652;28;20417;-80
2024/02/26 00:36:20;;;;;;;4.97;2.90;;;;;;;1.02;100.00;99783.47;5069010;28;20496;-80
2024/02/26 00:38:53;;;;;;;6.20;3.00;;;;;;;0.95;100.00;99783.63;5054886;28;20424;-80
2024/02/26 00:41:26;;;;;;;5.55;2.85;;;;;;;0.96;100.00;99774.53;5072849;28;20415;-80
2024/02/26 00:44:00;;;;;;;6.00;2.90;;;;;;;0.91;100.00;99782.47;5056272;28;20954;-81
2024/02/26 00:46:34;;;;;;;5.32;2.95;;;;;;;0.90;100.00;99783.53;5077119;28;20423;-80
2024/02/26 00:49:07;;;;;;;6.10;3.08;;;;;;;0.86;100.00;99782.38;5066736;28;20412;-80
2024/02/26 00:51:36;;;;;;;6.47;3.35;;;;;;;0.87;100.00;99783.19;5058090;28;20780;-80
2024/02/26 00:54:09;;;;;;;5.95;3.25;;;;;;;0.88;100.00;99774.91;5061252;28;20426;-80
2024/02/26 00:56:42;;;;;;;5.80;3.20;;;;;;;0.78;100.00;99780.88;5078490;28;20441;-81
2024/02/26 00:59:10;;;;;;;5.70;3.30;;;;;;;0.72;100.00;99787.19;5079227;28;20533;-80
2024/02/26 01:01:45;;;;;;;6.55;3.40;;;;;;;0.72;100.00;99781.00;5061154;28;20425;-80
2024/02/26 01:04:18;;;;;;;6.93;3.30;;;;;;;0.74;100.00;99789.63;5076224;28;20434;-80
2024/02/26 01:06:54;;;;;;;9.63;3.67;;;;;;;0.72;100.00;99789.03;5061689;28;20512;-81
2024/02/26 01:09:23;;;;;;;6.32;3.50;;;;;;;0.71;100.00;99790.09;5063552;28;20926;-80
2024/02/26 01:11:56;;;;;;;6.60;3.67;;;;;;;0.66;100.00;99793.47;5057534;28;20438;-81
2024/02/26 01:14:32;;;;;;;5.97;3.35;;;;;;;0.66;100.00;99794.31;5057939;28;20433;-81
2024/02/26 01:17:08;;;;;;;7.28;3.50;;;;;;;0.61;100.00;99796.06;5076182;28;20421;-81
2024/02/26 01:19:37;;;;;;;7.10;3.72;;;;;;;0.58;100.00;99788.47;5056298;28;20421;-81
2024/02/26 01:22:11;;;;;;;6.47;3.78;;;;;;;0.52;100.00;99789.44;5053928;28;20431;-80
2024/02/26 01:24:44;;;;;;;8.63;4.20;;;;;;;0.53;100.00;99783.84;5063131;28;20426;-81
2024/02/26 01:27:14;;;;;;;7.20;3.97;;;;;;;0.56;100.00;99785.25;5072719;28;20438;-81
2024/02/26 01:29:47;;;;;;;7.07;3.83;;;;;;;0.54;100.00;99780.13;5059077;28;20431;-81
2024/02/26 01:32:21;;;;;;;7.45;3.90;;;;;;;0.49;100.00;99778.13;5078280;28;20429;-80
2024/02/26 01:34:49;;;;;;;7.20;3.97;;;;;;;0.44;100.00;99793.28;5058904;28;20427;-81
2024/02/26 01:37:23;;;;;;;7.77;4.37;;;;;;;0.44;100.00;99793.28;5056280;28;20426;-80
2024/02/26 01:39:51;;;;;;;10.18;4.95;;;;;;;0.52;100.00;99787.56;5075417;28;20776;-80
2024/02/26 01:42:19;;;;;;;9.15;5.20;;;;;;;0.53;100.00;99786.53;5079142;28;20425;-80
2024/02/26 01:44:52;;;;;;;7.70;4.40;;;;;;;0.51;100.00;99796.63;5079988;28;20425;-80
2024/02/26 01:47:28;;;;;;;8.38;4.82;;;;;;;0.45;100.00;99792.22;5057420;28;20441;-80
2024/02/26 01:50:01;;;;;;;9.00;5.10;;;;;;;0.39;100.00;99794.00;5056810;28;20427;-80
2024/02/26 01:52:35;;;;;;;7.80;4.40;;;;;;;0.37;100.00;99792.59;5072581;28;20798;-80
2024/02/26 01:55:09;;;;;;;8.02;4.72;;;;;;;0.37;100.00;99792.59;5072564;28;21016;-80
2024/02/26 01:57:44;;;;;;;8.93;5.10;;;;;;;0.41;100.00;99789.19;5054886;28;20430;-80
2024/02/26 02:00:19;;;;;;;9.20;5.10;;;;;;;0.44;100.00;99790.59;5060968;28;21781;-80
2024/02/26 02:02:54;;;;;;;8.35;4.70;;;;;;;0.39;100.00;99785.13;5075081;28;20427;-80
2024/02/26 02:05:29;;;;;;;8.48;4.80;;;;;;;0.43;100.00;99797.81;5073707;28;20944;-80
2024/02/26 02:08:03;;;;;;;10.23;4.95;;;;;;;0.40;100.00;99800.97;5054268;28;20434;-80
2024/02/26 02:10:32;;;;;;;7.93;4.57;;;;;;;0.37;100.00;99805.97;5073640;28;22249;-80
2024/02/26 02:13:05;;;;;;;9.05;4.72;;;;;;;0.34;100.00;99800.03;5058658;28;20921;-80
2024/02/26 02:15:38;;;;;;;8.25;4.90;;;;;;;0.24;100.00;99799.81;5054940;28;20950;-80
2024/02/26 02:18:13;;;;;;;9.98;5.38;;;;;;;0.33;100.00;99790.38;5057782;28;20420;-80
2024/02/26 02:20:48;;;;;;;10.50;5.93;;;;;;;0.50;100.00;99797.69;5073452;28;20423;-80
2024/02/26 02:23:21;;;;;;;9.63;5.60;;;;;;;0.38;100.00;99791.53;5058387;28;20416;-80
2024/02/26 02:25:49;;;;;;;9.03;5.37;;;;;;;0.13;100.00;99803.31;5055526;28;20428;-80
2024/02/26 02:28:18;;;;;;;19.83;5.30;;;;;;;0.13;100.00;99792.59;5069748;28;20423;-80
2024/02/26 02:30:51;;;;;;;23.63;5.60;;;;;;;0.15;100.00;99793.16;5057735;28;20430;-80
2024/02/26 02:33:26;;;;;;;54.45;5.10;;;;;;;0.12;100.00;99805.16;5057019;28;20434;-80
2024/02/26 02:36:01;;;;;;;56.50;5.13;;;;;;;0.12;100.00;99790.97;5072431;28;20406;-79
2024/02/26 02:38:30;;;;;;;20.50;4.60;;;;;;;0.07;100.00;99798.88;5055628;28;20424;-80
2024/02/26 02:41:03;;;;;;;45.90;3.90;;;;;;;0.11;100.00;99802.72;5065718;28;20437;-79
2024/02/26 02:43:36;;;;;;;50.10;4.10;;;;;;;0.15;100.00;99794.00;5080310;28;20418;-79
2024/02/26 02:46:11;;;;;;;11.48;4.18;;;;;;;0.19;100.00;99799.69;5078611;28;20425;-79
2024/02/26 02:48:44;;;;;;;24.75;5.10;;;;;;;0.05;100.00;99801.78;5055659;28;20424;-80
2024/02/26 02:51:19;;;;;;;21.90;5.38;;;;;;;-0.06;100.00;99798.03;5077589;28;20438;-79
2024/02/26 02:53:52;;;;;;;33.88;4.30;;;;;;;-0.04;100.00;99797.84;5072272;28;20414;-80
2024/02/26 02:56:20;;;;;;;39.53;4.37;;;;;;;0.00;100.00;99804.34;5074110;28;20872;-80
2024/02/26 02:58:53;;;;;;;120.63;5.85;;;;;;;0.21;100.00;99802.13;5069736;28;20426;-80
2024/02/26 03:01:26;;;;;;;132.43;5.97;;;;;;;0.12;100.00;99805.16;5059361;28;20942;-80
2024/02/26 03:04:00;;;;;;;69.47;4.95;;;;;;;-0.08;100.00;99808.16;5053777;28;20424;-80
2024/02/26 03:06:29;;;;;;;60.87;4.63;;;;;;;0.07;100.00;99807.72;5070900;28;20500;-80
2024/02/26 03:09:02;;;;;;;21.83;4.20;;;;;;;-0.02;100.00;99807.22;5053160;28;20937;-80
2024/02/26 03:11:31;;;;;;;30.00;4.70;;;;;;;-0.06;100.00;99811.41;5057071;28;20441;-80
2024/02/26 03:13:59;;;;;;;16.67;4.47;;;;;;;-0.03;100.00;99818.16;5075144;28;20775;-80
2024/02/26 03:16:32;;;;;;;16.08;5.13;;;;;;;-0.10;100.00;99822.81;5058331;28;20431;-80
2024/02/26 03:19:01;;;;;;;14.73;4.70;;;;;;;-0.23;100.00;99823.84;5072184;28;20422;-80
2024/02/26 03:21:35;;;;;;;11.23;4.80;;;;;;;-0.33;100.00;99818.22;5058063;28;20850;-80
2024/02/26 03:24:04;;;;;;;16.17;5.20;;;;;;;-0.42;100.00;99810.53;5051323;28;20446;-80
2024/02/26 03:26:37;;;;;;;9.13;5.13;;;;;;;-0.41;100.00;99812.19;5070403;28;20910;-80
2024/02/26 03:29:05;;;;;;;9.95;5.72;;;;;;;-0.32;100.00;99822.53;5058038;28;20429;-80
2024/02/26 03:31:38;;;;;;;12.50;5.57;;;;;;;-0.40;100.00;99823.66;5071856;28;20424;-80
2024/02/26 03:34:07;;;;;;;9.98;5.57;;;;;;;-0.42;100.00;99823.91;5070960;28;20760;-80
2024/02/26 03:36:42;;;;;;;9.65;5.55;;;;;;;-0.38;100.00;99832.28;5074909;28;20423;-80
2024/02/26 03:39:15;;;;;;;10.82;5.40;;;;;;;-0.37;100.00;99826.72;5053823;28;20425;-79
2024/02/26 03:41:43;;;;;;;11.77;6.95;;;;;;;-0.36;100.00;99833.69;5072564;28;20422;-80
2024/02/26 03:44:11;;;;;;;11.43;6.20;;;;;;;-0.30;100.00;99840.00;5079183;28;20421;-80
2024/02/26 03:46:44;;;;;;;9.27;5.90;;;;;;;-0.30;100.00;99841.81;5058376;28;20425;-80
2024/02/26 03:49:13;;;;;;;10.77;6.18;;;;;;;-0.29;100.00;99838.13;5052794;28;20435;-79
2024/02/26 03:51:47;;;;;;;9.73;5.68;;;;;;;-0.24;100.00;99835.59;5072404;28;20795;-80
2024/02/26 03:54:21;;;;;;;10.07;5.80;;;;;;;-0.22;100.00;99836.16;5055400;28;20438;-80
2024/02/26 03:56:49;;;;;;;11.57;5.93;;;;;;;-0.29;100.00;99838.94;5074615;28;20890;-80
2024/02/26 03:59:17;;;;;;;10.73;6.15;;;;;;;-0.37;100.00;99848.09;5071347;28;20421;-80
2024/02/26 04:01:51;;;;;;;10.40;6.00;;;;;;;-0.41;100.00;99846.94;5070874;28;20821;-80
2024/02/26 04:04:24;;;;;;;10.82;6.25;;;;;;;-0.32;100.00;99858.09;5072969;28;20805;-80
2024/02/26 04:06:53;;;;;;;10.30;6.10;;;;;;;-0.36;100.00;99864.94;5072968;28;21097;-80
2024/02/26 04:09:27;;;;;;;11.85;6.00;;;;;;;-0.15;100.00;99868.97;5050766;28;20416;-80
2024/02/26 04:12:00;;;;;;;10.70;6.10;;;;;;;-0.18;100.00;99864.91;5056654;28;20433;-80
2024/02/26 04:14:29;;;;;;;10.30;6.10;;;;;;;-0.07;100.00;99865.97;5053493;28;20431;-79
2024/02/26 04:17:02;;;;;;;10.32;5.57;;;;;;;-0.28;100.00;99875.31;5071577;28;21392;-79
2024/02/26 04:19:30;;;;;;;10.48;6.30;;;;;;;-0.28;100.00;99882.53;5072020;28;20419;-80
2024/02/26 04:22:05;;;;;;;9.90;5.65;;;;;;;-0.27;100.00;99892.19;5069191;28;20432;-79
2024/02/26 04:24:38;;;;;;;9.98;5.82;;;;;;;-0.31;100.00;99891.03;5071569;28;20419;-80
2024/02/26 04:27:06;;;;;;;10.95;6.22;;;;;;;-0.40;100.00;99899.34;5053438;28;20431;-79
2024/02/26 04:29:35;;;;;;;10.30;6.55;;;;;;;-0.47;100.00;99901.31;5051290;28;20433;-79
2024/02/26 04:32:03;;;;;;;11.50;6.93;;;;;;;-0.51;100.00;99902.81;5069739;28;20423;-79
2024/02/26 04:34:37;;;;;;;12.65;7.30;;;;;;;-0.50;100.00;99909.75;5070813;28;20435;-79
2024/02/26 04:37:06;;;;;;;10.68;6.82;;;;;;;-0.55;100.00;99914.97;5068563;28;20788;-79
2024/02/26 04:39:39;;;;;;;10.63;6.68;;;;;;;-0.62;100.00;99916.91;5057756;28;20426;-79
2024/02/26 04:42:13;;;;;;;9.75;6.18;;;;;;;-0.70;100.00;99932.22;5072973;28;20420;-79
2024/02/26 04:44:47;;;;;;;10.88;6.38;;;;;;;-0.74;100.00;99932.88;5051547;28;20422;-80
2024/02/26 04:47:21;;;;;;;10.75;6.50;;;;;;;-0.72;100.00;99930.78;5053260;28;20932;-79
2024/02/26 04:49:50;;;;;;;10.68;6.60;;;;;;;-0.71;100.00;99929.75;5067711;28;20485;-79
2024/02/26 04:52:24;;;;;;;10.10;6.30;;;;;;;-0.70;100.00;99939.41;5050585;28;20428;-80
2024/02/26 04:54:59;;;;;;;11.40;6.53;;;;;;;-0.67;100.00;99944.31;5071589;28;20477;-80
2024/02/26 04:57:32;;;;;;;10.48;6.13;;;;;;;-0.68;100.00;99953.34;5066992;28;20431;-80
2024/02/26 05:00:07;;;;;;;11.20;6.15;;;;;;;-0.63;100.00;99936.66;5058315;28;20413;-80
2024/02/26 05:02:41;;;;;;;10.80;6.80;;;;;;;-0.63;100.00;99948.16;5073894;28;20821;-80
2024/02/26 05:05:14;;;;;;;10.77;6.35;;;;;;;-0.70;100.00;99944.75;5065190;28;20421;-80
2024/02/26 05:07:44;;;;;;;10.18;6.10;;;;;;;-0.73;100.00;99943.34;5056530;28;20430;-80
2024/02/26 05:10:17;;;;;;;11.40;6.43;;;;;;;-0.75;100.00;99942.75;5064809;28;20433;-79
2024/02/26 05:12:45;;;;;;;10.88;6.43;;;;;;;-0.76;100.00;99951.81;5056159;28;20422;-79
2024/02/26 05:15:19;;;;;;;11.13;6.30;;;;;;;-0.72;100.00;99952.16;5075776;28;20421;-79
2024/02/26 05:17:52;;;;;;;11.73;6.28;;;;;;;-0.69;100.00;99941.06;5075365;28;20428;-79
2024/02/26 05:20:25;;;;;;;12.20;6.45;;;;;;;-0.75;100.00;99948.09;5072520;28;20890;-79
2024/02/26 05:23:00;;;;;;;10.50;6.18;;;;;;;-0.75;100.00;99948.09;5072039;28;20422;-80
2024/02/26 05:25:33;;;;;;;12.25;6.32;;;;;;;-0.64;100.00;99957.22;5057765;28;20423;-79
2024/02/26 05:28:07;;;;;;;11.52;6.30;;;;;;;-0.63;100.00;99956.19;5068175;28;20431;-79
2024/02/26 05:30:40;;;;;;;11.75;6.22;;;;;;;-0.70;100.00;99955.44;5070585;28;20427;-79
2024/02/26 05:33:13;;;;;;;10.85;6.57;;;;;;;-0.69;100.00;99957.09;5051345;28;20437;-80
2024/02/26 05:35:47;;;;;;;12.73;6.35;;;;;;;-0.75;100.00;99952.63;5057966;28;20907;-79
2024/02/26 05:38:22;;;;;;;10.90;6.10;;;;;;;-0.79;100.00;99957.59;5068721;28;20905;-80
2024/02/26 05:40:55;;;;;;;10.65;6.25;;;;;;;-0.78;100.00;99967.25;5070095;28;20426;-79
2024/02/26 05:43:23;;;;;;;11.77;6.13;;;;;;;-0.71;100.00;99965.31;5054181;28;20427;-80
2024/02/26 05:45:56;;;;;;;11.00;6.13;;;;;;;-0.64;100.00;99962.56;5055122;28;21000;-80
2024/02/26 05:48:24;;;;;;;11.10;6.72;;;;;;;-0.54;100.00;99968.22;5053987;28;20442;-80
2024/02/26 05:50:52;;;;;;;13.50;6.68;;;;;;;-0.43;100.00;99968.50;5078570;28;20431;-80
2024/02/26 05:53:22;;;;;;;11.48;6.63;;;;;;;-0.39;100.00;99962.47;5078297;28;20415;-79
2024/02/26 05:55:55;;;;;;;9.88;6.03;;;;;;;-0.44;100.00;99969.53;5072238;28;20445;-79
2024/02/26 05:58:23;;;;;;;14.15;6.90;;;;;;;-0.52;100.00;99959.97;5074507;28;20422;-79
2024/02/26 06:00:57;;;;;;;35.65;7.03;;;;;;;-0.44;100.00;99978.38;5053152;28;20416;-79
2024/02/26 06:03:30;;;;;;;10.40;6.07;;;;;;;-0.48;100.00;99979.88;5057560;28;20423;-79
2024/02/26 06:05:58;;;;;;;10.73;6.35;;;;;;;-0.54;100.00;99986.09;5071161;28;20427;-80
2024/02/26 06:08:33;;;;;;;11.57;6.65;;;;;;;-0.62;100.00;99984.53;5074764;28;20441;-80
2024/02/26 06:11:06;;;;;;;11.82;6.45;;;;;;;-0.64;100.00;99991.97;5057852;28;20423;-80
2024/02/26 06:13:39;;;;;;;12.52;6.40;;;;;;;-0.66;100.00;99993.22;5057531;28;20923;-80
2024/02/26 06:16:09;;;;;;;11.60;6.70;;;;;;;-0.66;100.00;99995.88;5075768;28;20422;-80
2024/02/26 06:18:42;;;;;;;13.15;6.95;;;;;;;-0.62;100.00;100002.41;5058161;28;20948;-79
2024/02/26 06:21:15;;;;;;;12.07;7.00;;;;;;;-0.61;100.00;100007.53;5073524;28;20415;-80
2024/02/26 06:23:45;;;;;;;11.65;6.72;;;;;;;-0.66;100.00;100007.41;5072551;28;20425;-80
2024/02/26 06:26:13;;;;;;;11.73;6.75;;;;;;;-0.70;100.00;100009.69;5056765;28;20439;-79
2024/02/26 06:28:46;;;;;;;11.48;6.80;;;;;;;-0.65;100.00;100011.69;5056393;28;20863;-79
2024/02/26 06:31:21;;;;;;;11.05;6.55;;;;;;;-0.54;100.00;100012.81;5073423;28;20435;-80
2024/02/26 06:33:49;;;;;;;10.80;6.43;;;;;;;-0.36;100.00;100018.16;5053848;28;20433;-79
2024/02/26 06:36:23;;;;;;;10.60;5.73;;;;;;;-0.34;100.00;100009.94;5059082;28;20454;-80
2024/02/26 06:38:57;;;;;;;10.82;6.50;;;;;;;-0.48;100.00;100019.97;5071719;28;20418;-79
2024/02/26 06:41:30;;;;;;;10.75;6.07;;;;;;;-0.63;100.00;100023.00;5059017;28;20436;-79
2024/02/26 06:44:04;;;;;;;10.23;6.15;;;;;;;-0.60;100.00;100017.19;5052743;28;20431;-79
2024/02/26 06:46:37;;;;;;;11.00;6.20;;;;;;;-0.56;100.00;100014.91;5054546;28;20436;-79
2024/02/26 06:49:10;;;;;;;9.52;5.53;;;;;;;-0.58;100.00;100011.63;5054649;28;20923;-79
2024/02/26 06:51:43;;;;;;;9.25;5.65;;;;;;;-0.64;100.00;100018.69;5071687;28;20416;-79
2024/02/26 06:54:18;;;;;;;10.45;6.00;;;;;;;-0.68;100.00;100020.16;5074473;28;20427;-79
2024/02/26 06:56:46;;;;;;;10.35;5.68;;;;;;;-0.64;100.00;100023.22;5057200;28;20458;-79
2024/02/26 06:59:20;;;;;;;8.93;5.47;;;;;;;-0.61;100.00;100030.78;5060969;28;20416;-79
2024/02/26 07:01:54;;;;;;;8.98;5.20;;;;;;;-0.73;100.00;100039.53;5070372;28;21323;-79
2024/02/26 07:04:27;;;;;;;9.32;5.22;;;;;;;-0.71;100.00;100042.78;5052486;28;20430;-79
2024/02/26 07:06:55;;;;;;;10.25;5.70;;;;;;;-0.63;100.00;100044.38;5069953;28;20428;-80
2024/02/26 07:09:30;;;;;;;9.73;5.53;;;;;;;-0.60;100.00;100049.28;5073349;28;20421;-80
2024/02/26 07:12:04;;;;;;;8.98;5.28;;;;;;;-0.59;100.00;100045.56;5058591;28;20414;-80
2024/02/26 07:14:37;;;;;;;9.73;5.20;;;;;;;-0.58;100.00;100041.84;5054261;28;20433;-80
2024/02/26 07:17:05;;;;;;;10.10;5.80;;;;;;;-0.52;100.00;100045.50;5071896;28;20446;-81
2024/02/26 07:19:39;;;;;;;10.32;5.43;;;;;;;-0.47;100.00;100044.81;5050771;28;20442;-79
2024/02/26 07:22:13;;;;;;;10.82;5.80;;;;;;;-0.47;100.00;100048.31;5069368;28;20435;-80
2024/02/26 07:24:48;;;;;;;10.43;5.68;;;;;;;-0.39;100.00;100045.38;5052640;28;20439;-80
2024/02/26 07:27:22;;;;;;;9.38;5.38;;;;;;;-0.36;100.00;100049.41;5058430;28;20430;-80
2024/02/26 07:29:55;;;;;;;9.82;5.68;;;;;;;-0.26;100.00;100044.38;5055133;28;20943;-80
2024/02/26 07:32:28;;;;;;;9.77;5.60;;;;;;;-0.18;100.00;100051.28;5071634;28;20522;-79
2024/02/26 07:35:01;;;;;;;8.85;5.32;;;;;;;-0.37;100.00;100058.50;5036918;28;20444;-80
2024/02/26 07:37:35;;;;;;;9.20;5.78;;;;;;;-0.32;100.00;100061.31;5062414;28;20422;-81
2024/02/26 07:40:10;;;;;;;9.07;5.53;;;;;;;-0.24;100.00;100066.34;5065665;28;20425;-83
2024/02/26 07:42:44;;;;;;;9.23;5.47;;;;;;;-0.21;100.00;100062.41;5060395;28;20426;-82
2024/02/26 07:45:12;;;;;;;9.50;5.75;;;;;;;-0.31;100.00;100068.28;5044326;28;20794;-81
2024/02/26 07:47:45;;;;;;;9.45;5.70;;;;;;;-0.12;100.00;100073.66;5037292;28;21090;-81
2024/02/26 07:50:19;;;;;;;9.80;5.57;;;;;;;0.02;100.00;100074.31;5030181;28;20436;-81
2024/02/26 07:52:54;;;;;;;10.10;6.05;;;;;;;0.18;100.00;100079.03;5061350;28;27101;-80
2024/02/26 07:55:29;;;;;;;9.57;5.67;;;;;;;0.15;100.00;100085.66;5058553;28;20427;-81
2024/02/26 07:58:02;;;;;;;10.57;5.90;;;;;;;0.26;100.00;100089.44;5040409;28;20470;-81
2024/02/26 08:00:35;;;;;;;10.05;6.18;;;;;;;0.46;100.00;100086.47;5041794;28;20425;-81
2024/02/26 08:03:08;;;;;;;9.40;5.78;;;;;;;0.48;100.00;100096.94;5058455;28;20414;-82
2024/02/26 08:05:39;;;;;;;9.43;5.85;;;;;;;0.33;100.00;100097.34;5059069;28;20413;-82
2024/02/26 08:08:13;;;;;;;10.90;6.07;;;;;;;0.36;100.00;100098.75;5037471;28;20437;-80
2024/02/26 08:10:47;;;;;;;10.25;6.40;;;;;;;0.46;100.00;100107.88;5044850;28;20873;-80
2024/02/26 08:13:15;;;;;;;11.55;6.63;;;;;;;0.32;100.00;100109.94;5048485;28;20965;-80
2024/02/26 08:15:48;;;;;;;10.30;6.50;;;;;;;0.38;100.00;100112.75;5059060;28;20421;-80
2024/02/26 08:18:17;;;;;;;10.77;6.70;;;;;;;0.40;100.00;100114.16;5041521;28;21175;-80
2024/02/26 08:20:45;;;;;;;11.80;6.80;;;;;;;0.44;100.00;100112.66;5036908;28;20429;-80
2024/02/26 08:23:18;;;;;;;11.02;6.68;;;;;;;0.46;100.00;100107.88;5036515;28;20922;-80
2024/02/26 08:25:53;;;;;;;13.20;6.97;;;;;;;0.59;100.00;100109.56;5055363;28;20425;-81
2024/02/26 08:28:21;;;;;;;12.77;7.50;;;;;;;0.51;100.00;100112.56;5054567;28;20421;-79
2024/02/26 08:30:54;;;;;;;11.87;7.20;;;;;;;0.65;100.00;100113.22;5058393;28;20423;-80
2024/02/26 08:33:22;;;;;;;11.40;6.93;;;;;;;0.77;100.00;100119.38;5036970;28;20456;-80
2024/02/26 08:35:55;;;;;;;11.48;6.93;;;;;;;0.78;100.00;100114.88;5065941;28;20418;-80
2024/02/26 08:38:28;;;;;;;12.45;6.93;;;;;;;0.88;100.00;100117.78;5055895;28;20452;-80
2024/02/26 08:40:58;;;;;;;11.40;6.97;;;;;;;0.79;100.00;100111.16;5064344;28;20425;-80
2024/02/26 08:43:26;;;;;;;12.43;7.30;;;;;;;1.02;100.00;100123.75;5028634;28;20434;-80
2024/02/26 08:45:59;;;;;;;11.85;6.90;;;;;;;1.22;100.00;100125.34;5034766;28;20429;-80
2024/02/26 08:48:33;;;;;;;10.77;6.10;;;;;;;1.27;100.00;100128.09;5035663;28;21225;-80
2024/02/26 08:51:01;;;;;;;11.02;6.65;;;;;;;1.22;100.00;100128.81;5033388;28;20434;-80
2024/02/26 08:53:34;;;;;;;10.80;6.50;;;;;;;1.24;100.00;100131.25;5028456;28;20435;-79
2024/02/26 08:56:09;;;;;;;10.45;6.68;;;;;;;1.45;100.00;100138.75;5032471;28;20873;-80
2024/02/26 08:58:37;;;;;;;14.35;6.72;;;;;;;1.62;100.00;100130.81;5028914;28;20436;-79
2024/02/26 09:01:05;;;;;;;12.33;6.90;;;;;;;1.51;100.00;100129.75;5029216;28;22170;-80
2024/02/26 09:03:34;;;;;;;12.27;6.90;;;;;;;1.31;100.00;100138.16;5019217;28;20419;-80
2024/02/26 09:06:07;;;;;;;11.52;6.82;;;;;;;1.58;100.00;100136.88;5020615;28;20435;-82
2024/02/26 09:08:40;;;;;;;12.95;7.78;;;;;;;1.56;100.00;100141.66;5021694;28;20435;-81
2024/02/26 09:11:15;;;;;;;11.55;6.90;;;;;;;1.78;100.00;100136.50;5036301;28;20427;-81
2024/02/26 09:13:48;;;;;;;12.32;7.28;;;;;;;1.89;100.00;100145.59;5031292;28;21059;-81
2024/02/26 09:16:21;;;;;;;11.75;7.25;;;;;;;1.97;100.00;100137.19;5029763;28;20430;-81
2024/02/26 09:18:54;;;;;;;12.15;7.25;;;;;;;2.07;100.00;100144.63;5025879;28;20423;-81
2024/02/26 09:21:27;;;;;;;11.48;7.00;;;;;;;2.18;100.00;100143.78;5031535;28;20434;-81
2024/02/26 09:24:01;;;;;;;11.65;6.68;;;;;;;2.08;100.00;100147.09;5053130;28;20425;-81
2024/02/26 09:26:35;;;;;;;12.52;7.38;;;;;;;2.01;100.00;100155.25;5036933;28;20427;-81
2024/02/26 09:29:09;;;;;;;10.30;6.65;;;;;;;2.38;100.00;100154.13;5035278;28;20436;-81
2024/02/26 09:31:42;;;;;;;12.27;7.07;;;;;;;2.51;100.00;100155.72;5032957;28;20431;-81
2024/02/26 09:34:10;;;;;;;12.10;7.40;;;;;;;2.44;100.00;100160.44;5034510;28;20443;-81
2024/02/26 09:36:38;;;;;;;12.13;7.40;;;;;;;2.71;100.00;100156.13;5025413;28;20446;-81
2024/02/26 09:39:14;;;;;;;11.90;6.70;;;;;;;2.91;100.00;100159.41;5031915;28;20419;-81
2024/02/26 09:41:45;;;;;;;10.93;6.70;;;;;;;2.77;100.00;100158.91;5030173;28;20431;-81
2024/02/26 09:44:21;;;;;;;10.88;6.85;;;;;;;2.86;100.00;100163.66;5003615;28;20435;-81
2024/02/26 09:46:54;;;;;;;12.82;7.35;;;;;;;2.95;100.00;100164.06;5036261;28;20636;-82
2024/02/26 09:49:28;;;;;;;11.87;7.03;;;;;;;3.16;100.00;100162.56;5036784;28;20427;-81
2024/02/26 09:52:03;;;;;;;11.00;6.63;;;;;;;3.12;100.00;100165.97;5039641;28;20505;-81
2024/02/26 09:54:36;;;;;;;13.10;7.57;;;;;;;3.32;100.00;100166.31;5039620;28;20435;-80
2024/02/26 09:57:15;;;;;;;12.15;7.80;;;;;;;3.14;100.00;100171.94;5034856;28;20442;-81
2024/02/26 09:59:45;;;;;;;12.02;7.18;;;;;;;3.39;100.00;100175.00;5033431;28;22304;-81
2024/02/26 10:02:20;;;;;;;12.60;7.93;;;;;;;3.44;100.00;100174.31;5019054;28;20428;-81
2024/02/26 10:04:57;;;;;;;12.32;7.43;;;;;;;3.44;100.00;100179.69;5015708;28;20431;-81
2024/02/26 10:07:26;;;;;;;12.30;7.88;;;;;;;3.38;100.00;100175.25;5035050;28;21264;-80
2024/02/26 10:09:54;;;;;;;12.40;7.70;;;;;;;3.44;100.00;100178.84;5037337;28;21959;-81
2024/02/26 10:12:31;;;;;;;11.48;7.30;;;;;;;3.48;100.00;100177.31;5036902;28;20429;-81
2024/02/26 10:15:04;;;;;;;14.57;8.27;;;;;;;3.60;100.00;100182.59;5036362;28;20427;-81
2024/02/26 10:17:32;;;;;;;14.65;9.32;;;;;;;3.52;100.00;100181.97;5036794;28;20430;-80
2024/02/26 10:20:17;;;;;;;12.88;8.45;;;;;;;3.57;100.00;100183.91;5015234;28;20427;-80
2024/02/26 10:22:46;;;;;;;14.27;8.95;;;;;;;3.68;100.00;100188.38;5032082;28;20434;-80
2024/02/26 10:25:14;;;;;;;14.23;8.88;;;;;;;3.63;100.00;100198.25;5037691;28;20416;-81
2024/02/26 10:27:50;;;;;;;14.70;8.55;;;;;;;3.69;100.00;100192.72;5015896;28;20427;-81
2024/02/26 10:30:19;;;;;;;14.30;9.40;;;;;;;3.83;100.00;100198.56;5017268;28;20434;-80
2024/02/26 10:32:52;;;;;;;14.48;9.32;;;;;;;3.78;100.00;100195.78;5025043;28;20429;-80
2024/02/26 10:35:26;;;;;;;17.27;10.02;;;;;;;3.77;100.00;100196.88;5021766;28;20442;-81
2024/02/26 10:37:59;;;;;;;18.35;10.48;;;;;;;3.83;100.00;100203.94;5027021;28;20563;-81
2024/02/26 10:40:33;;;;;;;17.83;10.75;;;;;;;4.08;100.00;100208.06;5026626;28;20420;-81
2024/02/26 10:43:08;;;;;;;17.43;10.63;;;;;;;3.99;100.00;100206.84;5021746;28;20849;-81
2024/02/26 10:45:42;;;;;;;19.45;11.30;;;;;;;3.99;100.00;100207.69;5015884;28;20950;-80
2024/02/26 10:48:12;;;;;;;18.00;11.18;;;;;;;4.11;100.00;100210.25;5032080;28;20431;-80
2024/02/26 10:50:41;;;;;;;19.40;10.60;;;;;;;4.41;100.00;100209.03;5016520;28;20435;-79
2024/02/26 10:53:15;;;;;;;17.65;11.40;;;;;;;4.24;100.00;100215.31;5014275;28;20439;-80
2024/02/26 10:55:50;;;;;;;19.10;10.73;;;;;;;4.30;100.00;100213.47;5034391;28;20433;-80
2024/02/26 10:58:20;;;;;;;17.33;10.52;;;;;;;4.42;100.00;100216.88;5038148;28;21303;-80
2024/02/26 11:00:54;;;;;;;20.77;11.15;;;;;;;4.24;100.00;100217.19;5021815;28;20414;-80
2024/02/26 11:03:31;;;;;;;18.65;11.50;;;;;;;4.42;100.00;100219.56;5013959;28;20443;-81
2024/02/26 11:06:02;;;;;;;19.50;12.07;;;;;;;4.29;100.00;100228.00;5035027;28;20434;-80
2024/02/26 11:08:36;;;;;;;18.60;11.55;;;;;;;4.51;100.00;100208.34;5034804;28;20431;-79
2024/02/26 11:11:05;;;;;;;19.55;11.57;;;;;;;4.40;100.00;100207.41;5009739;28;20428;-80
2024/02/26 11:13:42;;;;;;;19.15;11.75;;;;;;;4.72;100.00;100206.72;5017901;28;20424;-80
2024/02/26 11:16:17;;;;;;;19.70;11.45;;;;;;;4.72;100.00;100204.84;5012777;28;20439;-81
2024/02/26 11:18:48;;;;;;;20.50;11.40;;;;;;;4.83;100.00;100213.03;5041539;28;20835;-80
2024/02/26 11:21:27;;;;;;;18.03;11.10;;;;;;;4.96;100.00;100214.50;5010823;28;20437;-80
2024/02/26 11:23:55;;;;;;;16.60;9.57;;;;;;;4.79;100.00;100211.91;5028009;28;20432;-80
2024/02/26 11:26:29;;;;;;;19.33;11.10;;;;;;;4.99;100.00;100216.72;5039455;28;20416;-81
2024/02/26 11:29:05;;;;;;;20.35;10.60;;;;;;;4.95;100.00;100216.41;5033867;28;20454;-80
2024/02/26 11:31:34;;;;;;;23.90;12.95;;;;;;;4.98;100.00;100221.28;5019740;28;22583;-80
2024/02/26 11:34:08;;;;;;;22.47;11.73;;;;;;;5.07;100.00;100225.16;5031934;28;20431;-80
2024/02/26 11:36:42;;;;;;;21.23;11.20;;;;;;;5.08;100.00;100224.09;5016260;28;20435;-80
2024/02/26 11:39:16;;;;;;;19.67;10.83;;;;;;;4.99;100.00;100222.09;5029472;28;20531;-81
2024/02/26 11:41:45;;;;;;;19.23;10.23;;;;;;;4.99;100.00;100224.81;5011802;28;20908;-80